KCGI/CGI METAR and TAF weather

Enter ICAO airport designator
Station Type Date Time Source
KCGI METAR 2020/05/30 04:53 UTC NOAA

KCGI 300453Z AUTO 36006KT 10SM CLR 19/12 A3012 RMK AO2 SLP196 T01890117


Station Type Date Time Source
KCGI Decoded METAR 2020/05/30 04:53 UTC NOAA

CAPE GIRARDEAU REGIONAL, MO, United States (KCGI) 37-14N 089-35W 102M
May 30, 2020 - 12:53 AM EDT / 2020.05.30 0453 UTC
Wind: from the N (360 degrees) at 7 MPH (6 KT):0
Visibility: 10 mile(s):0
Sky conditions: clear
Temperature: 66.0 F (18.9 C)
Dew Point: 53.1 F (11.7 C)
Relative Humidity: 62%
Pressure (altimeter): 30.12 in. Hg (1019 hPa)
ob: KCGI 300453Z AUTO 36006KT 10SM CLR 19/12 A3012 RMK AO2 SLP196 T01890117
cycle: 5

Station Type Date Time Source
KCGI TAF 2020/05/29 18:24 UTC NOAA

TAF KCGI 291723Z 2918/3018 34010KT P6SM FEW040 SCT200
FM292200 34009KT P6SM FEW060 FEW250
FM300500 VRB04KT P6SM SKC
FM301200 35006KT P6SM SKC
FM301400 01007KT P6SM FEW250

Example: see airport list